createdAt,value
2023-04-02T00:01:00.459Z,1.52
2023-04-02T00:03:45.476Z,1.00
2023-04-02T00:06:34.789Z,1.33
2023-04-02T00:09:13.432Z,0.52
2023-04-02T00:11:41.633Z,1.23
2023-04-02T00:14:25.818Z,0.50
2023-04-02T00:16:53.122Z,1.13
2023-04-02T00:19:30.641Z,0.70
2023-04-02T00:21:57.691Z,0.55
2023-04-02T00:24:24.119Z,1.00
2023-04-02T00:26:51.394Z,0.65
2023-04-02T00:29:19.159Z,0.95
2023-04-02T00:31:47.199Z,1.10
2023-04-02T00:34:25.761Z,0.50
2023-04-02T00:36:52.286Z,0.93
2023-04-02T00:39:21.051Z,1.55
2023-04-02T00:41:47.933Z,0.60
2023-04-02T00:44:21.729Z,0.65
2023-04-02T00:46:49.687Z,0.90
2023-04-02T00:49:28.341Z,0.60
2023-04-02T00:51:57.393Z,0.70
2023-04-02T00:54:25.675Z,0.70
2023-04-02T00:56:53.771Z,0.57
2023-04-02T00:59:24.687Z,1.00
2023-04-02T01:01:54.293Z,0.82
2023-04-02T01:04:34.024Z,0.80
2023-04-02T01:07:05.016Z,0.60
2023-04-02T01:09:49.616Z,0.95
2023-04-02T01:12:16.530Z,0.73
2023-04-02T01:14:45.766Z,0.63
2023-04-02T01:17:26.468Z,0.60
2023-04-02T01:20:11.844Z,1.20
2023-04-02T01:22:51.096Z,0.93
2023-04-02T01:25:20.959Z,0.80
2023-04-02T01:28:05.517Z,0.75
2023-04-02T01:30:34.673Z,0.70
2023-04-02T01:33:01.301Z,1.00
2023-04-02T01:35:29.592Z,0.70
2023-04-02T01:38:03.239Z,0.68
2023-04-02T01:40:29.672Z,0.40
2023-04-02T01:43:11.488Z,0.60
2023-04-02T01:45:38.286Z,0.63
2023-04-02T01:48:06.542Z,0.68
2023-04-02T01:50:37.441Z,0.68
2023-04-02T01:55:33.762Z,0.98
2023-04-02T01:58:01.325Z,4.05
2023-04-02T02:00:30.148Z,0.50
2023-04-02T02:02:59.456Z,0.88
2023-04-02T02:05:26.442Z,0.60
2023-04-02T02:07:56.303Z,0.60
2023-04-02T02:10:33.275Z,0.70
2023-04-02T02:13:00.490Z,0.73
2023-04-02T02:15:27.141Z,0.82
2023-04-02T02:18:02.297Z,0.70
2023-04-02T02:20:29.185Z,0.93
2023-04-02T02:22:56.342Z,1.17
2023-04-02T02:25:25.368Z,0.63
2023-04-02T02:28:04.052Z,0.57
2023-04-02T02:30:33.239Z,0.75
2023-04-02T02:33:02.879Z,0.63
2023-04-02T02:35:38.737Z,0.60
2023-04-02T02:38:24.635Z,0.82
2023-04-02T02:40:53.252Z,0.70
2023-04-02T02:43:20.062Z,0.65
2023-04-02T02:45:47.467Z,0.93
2023-04-02T02:48:15.452Z,0.50
2023-04-02T02:50:43.009Z,0.60
2023-04-02T02:53:16.278Z,0.65
2023-04-02T02:55:42.700Z,0.50
2023-04-02T02:58:19.353Z,0.47
2023-04-02T03:00:56.936Z,1.17
2023-04-02T03:03:26.422Z,0.60
2023-04-02T03:06:03.282Z,0.50
2023-04-02T03:08:36.849Z,0.57
2023-04-02T03:11:23.097Z,0.60
2023-04-02T03:13:50.758Z,0.40
2023-04-02T03:16:28.386Z,0.98
2023-04-02T03:19:08.416Z,0.80
2023-04-02T03:21:42.589Z,0.65
2023-04-02T03:24:17.876Z,0.50
2023-04-02T03:26:49.412Z,1.00
2023-04-02T03:29:22.465Z,0.50
2023-04-02T03:31:53.940Z,0.70
2023-04-02T03:34:23.821Z,0.50
2023-04-02T03:37:02.169Z,0.70
2023-04-02T03:39:46.506Z,0.95
2023-04-02T03:42:20.505Z,2.10
2023-04-02T03:44:56.051Z,1.35
2023-04-02T03:47:31.644Z,0.88
2023-04-02T03:50:06.218Z,0.85
2023-04-02T03:52:34.997Z,0.52
2023-04-02T03:55:02.591Z,0.60
2023-04-02T03:57:40.404Z,0.85
2023-04-02T04:00:13.635Z,0.40
2023-04-02T04:02:49.601Z,0.55
2023-04-02T04:05:26.819Z,0.60
2023-04-02T04:07:59.703Z,0.65
2023-04-02T04:10:26.820Z,1.50
2023-04-02T04:12:55.628Z,0.95
2023-04-02T04:16:02.411Z,0.90
2023-04-02T04:18:37.914Z,0.68
2023-04-02T04:21:22.753Z,0.68
2023-04-02T04:23:50.892Z,0.60
2023-04-02T04:26:24.498Z,0.60
2023-04-02T04:28:59.667Z,0.80
2023-04-02T04:31:34.624Z,1.15
2023-04-02T04:34:05.875Z,0.70
2023-04-02T04:36:47.916Z,0.80
2023-04-02T04:39:18.306Z,0.63
2023-04-02T04:41:48.663Z,0.82
2023-04-02T04:44:23.335Z,0.93
2023-04-02T04:46:55.326Z,1.00
2023-04-02T04:49:27.348Z,0.80
2023-04-02T04:52:06.164Z,0.60
2023-04-02T04:54:36.558Z,0.85
2023-04-02T04:57:03.966Z,1.85
2023-04-02T04:59:33.218Z,1.05
2023-04-02T05:02:32.068Z,0.90
2023-04-02T05:05:00.706Z,0.50
2023-04-02T05:07:32.103Z,1.85
2023-04-02T05:10:01.368Z,0.60
2023-04-02T05:12:36.694Z,0.65
2023-04-02T05:15:15.871Z,0.60
2023-04-02T05:17:50.345Z,0.70
2023-04-02T05:20:24.687Z,0.45
2023-04-02T05:22:55.983Z,0.60
2023-04-02T05:25:25.425Z,0.60
2023-04-02T05:27:53.029Z,0.80
2023-04-02T05:30:35.958Z,0.50
2023-04-02T05:33:07.813Z,0.52
2023-04-02T05:35:36.710Z,0.50
2023-04-02T05:38:04.945Z,0.60
2023-04-02T05:40:39.874Z,0.65
2023-04-02T05:43:08.737Z,0.50
2023-04-02T05:45:41.273Z,0.65
2023-04-02T05:48:17.417Z,0.60
2023-04-02T05:50:47.059Z,0.60
2023-04-02T05:53:23.828Z,0.57
2023-04-02T05:55:57.990Z,0.50
2023-04-02T05:58:37.175Z,0.45
2023-04-02T06:01:30.072Z,0.60
2023-04-02T06:04:15.035Z,0.40
2023-04-02T06:06:41.791Z,0.60
2023-04-02T06:09:30.536Z,0.50
2023-04-02T06:12:09.295Z,0.45
2023-04-02T06:14:36.086Z,0.43
2023-04-02T06:17:03.569Z,0.63
2023-04-02T06:19:32.815Z,0.60
2023-04-02T06:22:07.280Z,0.80
2023-04-02T06:24:34.145Z,0.65
2023-04-02T06:27:08.888Z,0.85
2023-04-02T06:29:40.277Z,0.50
2023-04-02T06:32:12.386Z,0.57
2023-04-02T06:34:42.535Z,1.30
2023-04-02T06:37:19.828Z,0.60
2023-04-02T06:39:47.803Z,0.98
2023-04-02T06:42:19.286Z,0.75
2023-04-02T06:45:16.660Z,0.82
2023-04-02T06:48:03.795Z,0.70
2023-04-02T06:50:53.293Z,0.85
2023-04-02T06:53:23.506Z,0.80
2023-04-02T06:56:04.622Z,0.75
2023-04-02T06:58:32.810Z,0.60
2023-04-02T07:00:59.886Z,1.50
2023-04-02T07:03:52.447Z,0.82
2023-04-02T07:06:27.764Z,0.68
2023-04-02T07:08:57.867Z,0.40
2023-04-02T07:11:24.980Z,0.60
2023-04-02T07:13:54.121Z,0.70
2023-04-02T07:16:21.621Z,0.60
2023-04-02T07:18:48.724Z,0.68
2023-04-02T07:21:16.076Z,0.55
2023-04-02T07:23:42.928Z,0.52
2023-04-02T07:26:12.918Z,0.43
2023-04-02T07:28:39.320Z,0.50
2023-04-02T07:31:14.482Z,0.65
2023-04-02T07:33:42.066Z,0.57
2023-04-02T07:36:12.759Z,0.80
2023-04-02T07:38:39.131Z,0.52
2023-04-02T07:41:06.220Z,0.50
2023-04-02T07:43:32.652Z,0.30
2023-04-02T07:45:59.962Z,0.60
2023-04-02T07:48:26.371Z,0.40
2023-04-02T07:50:52.755Z,0.50
2023-04-02T07:53:27.601Z,0.40
2023-04-02T07:55:54.317Z,0.40
2023-04-02T07:58:20.737Z,0.30
2023-04-02T08:00:47.099Z,0.75
2023-04-02T08:03:13.721Z,0.40
2023-04-02T08:05:40.340Z,1.58
2023-04-02T08:08:06.822Z,0.38
2023-04-02T08:10:33.287Z,0.50
2023-04-02T08:12:59.685Z,0.40
2023-04-02T08:15:26.293Z,0.45
2023-04-02T08:17:53.553Z,0.40
2023-04-02T08:20:22.100Z,0.32
2023-04-02T08:22:49.464Z,0.40
2023-04-02T08:25:16.213Z,0.60
2023-04-02T08:27:42.690Z,0.80
2023-04-02T08:30:11.464Z,0.40
2023-04-02T08:32:40.943Z,0.38
2023-04-02T08:35:08.573Z,0.73
2023-04-02T08:37:34.980Z,0.35
2023-04-02T08:40:01.438Z,0.47
2023-04-02T08:42:34.725Z,0.50
2023-04-02T08:45:25.054Z,0.47
2023-04-02T08:47:53.487Z,0.57
2023-04-02T08:50:32.732Z,0.40
2023-04-02T08:52:59.991Z,0.60
2023-04-02T08:55:29.999Z,0.55
2023-04-02T08:58:01.721Z,0.30
2023-04-02T09:00:36.746Z,0.40
2023-04-02T09:03:15.715Z,0.55
2023-04-02T09:05:43.027Z,0.40
2023-04-02T09:08:16.066Z,0.52
2023-04-02T09:10:45.824Z,0.70
2023-04-02T09:13:22.898Z,0.45
2023-04-02T09:15:50.025Z,0.45
2023-04-02T09:18:17.477Z,0.85
2023-04-02T09:20:44.235Z,0.60
2023-04-02T09:23:16.690Z,0.28
2023-04-02T09:25:54.124Z,0.45
2023-04-02T09:28:27.843Z,0.20
2023-04-02T09:31:04.398Z,0.47
2023-04-02T09:33:46.915Z,0.20
2023-04-02T09:36:32.255Z,0.40
2023-04-02T09:39:01.482Z,0.68
2023-04-02T09:41:29.682Z,0.75
2023-04-02T09:44:15.044Z,0.73
2023-04-02T09:46:47.925Z,0.20
2023-04-02T09:49:16.123Z,0.20
2023-04-02T09:51:42.565Z,0.80
2023-04-02T09:54:13.678Z,0.35
2023-04-02T09:56:41.033Z,0.40
2023-04-02T09:59:15.245Z,0.47
2023-04-02T10:01:43.688Z,0.60
2023-04-02T10:04:28.272Z,0.47
2023-04-02T10:06:57.969Z,0.40
2023-04-02T10:09:32.414Z,0.40
2023-04-02T10:11:59.840Z,0.60
2023-04-02T10:14:37.612Z,0.52
2023-04-02T10:17:18.835Z,0.60
2023-04-02T10:19:47.266Z,0.43
2023-04-02T10:22:15.777Z,0.30
2023-04-02T10:24:42.205Z,0.50
2023-04-02T10:27:11.653Z,0.32
2023-04-02T10:29:42.886Z,0.47
2023-04-02T10:32:23.586Z,0.40
2023-04-02T10:35:11.472Z,0.30
2023-04-02T10:37:45.586Z,0.50
2023-04-02T10:40:14.333Z,0.70
2023-04-02T10:42:48.753Z,0.60
2023-04-02T10:45:24.551Z,0.32
2023-04-02T10:47:51.166Z,0.22
2023-04-02T10:50:24.478Z,0.30
2023-04-02T10:52:55.045Z,0.22
2023-04-02T10:55:25.455Z,0.28
2023-04-02T10:57:54.038Z,0.47
2023-04-02T11:00:33.135Z,0.20
2023-04-02T11:03:09.866Z,0.28
2023-04-02T11:05:44.458Z,0.17
2023-04-02T11:08:22.915Z,0.20
2023-04-02T11:10:58.838Z,0.20
2023-04-02T11:13:30.772Z,0.20
2023-04-02T11:15:57.307Z,0.32
2023-04-02T11:18:36.540Z,0.30
2023-04-02T11:21:04.537Z,0.30
2023-04-02T11:23:36.260Z,0.38
2023-04-02T11:28:32.322Z,0.52
2023-04-02T11:30:59.012Z,0.20
2023-04-02T11:33:39.201Z,0.90
2023-04-02T11:36:25.015Z,0.30
2023-04-02T11:38:52.813Z,0.30
2023-04-02T11:41:37.905Z,0.40
2023-04-02T11:44:05.412Z,0.32
2023-04-02T11:46:34.353Z,0.40
2023-04-02T11:49:19.829Z,0.60
2023-04-02T11:51:49.574Z,0.30
2023-04-02T11:54:28.011Z,0.65
2023-04-02T11:57:00.272Z,0.30
2023-04-02T11:59:26.724Z,0.20
2023-04-02T12:01:56.867Z,0.60
2023-04-02T12:04:34.201Z,0.65
2023-04-02T12:07:12.896Z,0.85
2023-04-02T12:09:47.974Z,0.43
2023-04-02T12:12:23.074Z,0.35
2023-04-02T12:14:51.248Z,0.30
2023-04-02T12:17:36.265Z,0.40
2023-04-02T12:20:05.705Z,0.25
2023-04-02T12:22:33.311Z,0.40
2023-04-02T12:25:05.132Z,0.38
2023-04-02T12:27:31.602Z,0.30
2023-04-02T12:30:11.605Z,0.30
2023-04-02T12:32:38.128Z,1.33
2023-04-02T12:35:06.198Z,0.35
2023-04-02T12:37:32.670Z,0.88
2023-04-02T12:40:07.092Z,0.50
2023-04-02T12:42:34.969Z,0.28
2023-04-02T12:45:01.541Z,1.05
2023-04-02T12:47:28.758Z,0.50
2023-04-02T12:49:56.838Z,0.70
2023-04-02T12:52:28.467Z,0.55
2023-04-02T12:54:54.862Z,0.70
2023-04-02T12:57:27.501Z,0.40
2023-04-02T12:59:55.007Z,0.52
2023-04-02T13:02:23.005Z,0.57
2023-04-02T13:04:52.479Z,0.40
2023-04-02T13:07:20.800Z,0.30
2023-04-02T13:09:49.228Z,3.35
2023-04-02T13:12:24.695Z,1.65
2023-04-02T13:14:56.187Z,2.55
2023-04-02T13:19:48.949Z,0.88
2023-04-02T13:22:31.692Z,1.08
2023-04-02T13:24:58.128Z,1.00
2023-04-02T13:27:24.626Z,0.80
2023-04-02T13:29:51.096Z,0.80
2023-04-02T13:32:18.215Z,1.33
2023-04-02T13:34:44.650Z,1.00
2023-04-02T13:37:12.689Z,1.00
2023-04-02T13:39:39.144Z,0.80
2023-04-02T13:42:07.774Z,1.17
2023-04-02T13:44:35.840Z,0.73
2023-04-02T13:47:02.405Z,0.60
2023-04-02T13:49:29.272Z,0.55
2023-04-02T13:51:59.954Z,0.73
2023-04-02T13:54:45.255Z,0.57
2023-04-02T13:57:11.782Z,3.88
2023-04-02T13:59:38.206Z,1.65
2023-04-02T14:02:07.503Z,3.50
2023-04-02T14:04:37.753Z,0.57
2023-04-02T14:07:13.064Z,0.80
2023-04-02T14:09:39.483Z,3.00
2023-04-02T14:12:24.853Z,1.20
2023-04-02T14:14:52.282Z,0.65
2023-04-02T14:17:18.708Z,0.68
2023-04-02T14:20:03.879Z,0.55
2023-04-02T14:22:36.331Z,0.68
2023-04-02T14:25:25.719Z,1.58
2023-04-02T14:27:58.184Z,1.55
2023-04-02T14:30:30.532Z,0.85
2023-04-02T14:32:58.331Z,0.80
2023-04-02T14:35:29.047Z,0.50
2023-04-02T14:38:14.670Z,0.37
2023-04-02T14:40:50.095Z,0.35
2023-04-02T14:43:19.804Z,0.50
2023-04-02T14:45:46.267Z,0.80
2023-04-02T14:48:12.653Z,0.52
2023-04-02T14:50:40.322Z,0.40
2023-04-02T14:53:18.792Z,0.60
2023-04-02T14:55:47.167Z,1.10
2023-04-02T14:58:18.844Z,1.20
2023-04-02T15:00:49.162Z,3.00
2023-04-02T15:03:22.144Z,0.95
2023-04-02T15:05:49.914Z,2.35
2023-04-02T15:08:30.191Z,1.58
2023-04-02T15:11:02.852Z,2.17
2023-04-02T15:13:35.879Z,2.25
2023-04-02T15:18:28.986Z,1.50
2023-04-02T15:21:01.291Z,1.35
2023-04-02T15:23:40.876Z,2.00
2023-04-02T15:26:18.229Z,3.60
2023-04-02T15:28:54.051Z,2.42
2023-04-02T15:31:21.975Z,1.35
2023-04-02T15:33:53.309Z,1.50
2023-04-02T15:36:35.302Z,1.05
2023-04-02T15:39:08.994Z,1.13
2023-04-02T15:41:40.042Z,2.47
2023-04-02T15:44:13.198Z,2.50
2023-04-02T15:46:58.194Z,3.42
2023-04-02T15:49:46.514Z,1.25
2023-04-02T15:52:18.166Z,1.20
2023-04-02T15:55:19.909Z,1.20
2023-04-02T15:57:51.020Z,1.70
2023-04-02T16:00:22.939Z,1.77
2023-04-02T16:03:02.687Z,2.00
2023-04-02T16:05:32.415Z,3.05
2023-04-02T16:08:13.344Z,2.40
2023-04-02T16:10:42.374Z,1.52
2023-04-02T16:13:19.057Z,1.65
2023-04-02T16:15:53.579Z,1.60
2023-04-02T16:18:32.872Z,1.80
2023-04-02T16:21:01.598Z,2.20
2023-04-02T16:23:31.714Z,1.77
2023-04-02T16:26:12.909Z,2.05
2023-04-02T16:28:58.401Z,1.88
2023-04-02T16:31:24.783Z,2.40
2023-04-02T16:33:56.674Z,2.35
2023-04-02T16:36:31.303Z,1.60
2023-04-02T16:39:21.642Z,1.55
2023-04-02T16:42:04.700Z,1.42
2023-04-02T16:44:43.437Z,1.77
2023-04-02T16:47:09.842Z,2.13
2023-04-02T16:49:55.193Z,1.23
2023-04-02T16:52:40.829Z,2.03
2023-04-02T16:55:23.385Z,1.90
2023-04-02T16:58:12.560Z,1.33
2023-04-02T17:00:38.993Z,1.02
2023-04-02T17:03:24.363Z,2.00
2023-04-02T17:06:16.035Z,2.45
2023-04-02T17:08:43.364Z,2.10
2023-04-02T17:11:14.809Z,3.10
2023-04-02T17:13:41.579Z,1.85
2023-04-02T17:16:13.807Z,1.65
2023-04-02T17:18:41.904Z,3.75
2023-04-02T17:21:11.003Z,3.08
2023-04-02T17:23:55.287Z,2.20
2023-04-02T17:26:24.349Z,2.00
2023-04-02T17:28:51.278Z,2.10
2023-04-02T17:31:20.174Z,2.70
2023-04-02T17:33:46.907Z,2.38
2023-04-02T17:36:26.058Z,2.25
2023-04-02T17:39:11.227Z,2.47
2023-04-02T17:41:47.121Z,2.75
2023-04-02T17:44:16.806Z,2.10
2023-04-02T17:46:55.153Z,3.53
2023-04-02T17:49:40.727Z,2.63
2023-04-02T17:52:25.901Z,2.80
2023-04-02T17:55:11.587Z,4.88
2023-04-02T17:57:38.003Z,5.38
2023-04-02T18:00:29.374Z,2.30
2023-04-02T18:02:58.904Z,4.85
2023-04-02T18:05:31.584Z,3.65
2023-04-02T18:08:18.856Z,3.38
2023-04-02T18:10:51.017Z,3.13
2023-04-02T18:13:24.800Z,2.55
2023-04-02T18:16:10.486Z,2.80
2023-04-02T18:18:42.723Z,2.88
2023-04-02T18:21:18.178Z,2.92
2023-04-02T18:23:51.096Z,2.63
2023-04-02T18:26:23.861Z,3.33
2023-04-02T18:28:53.058Z,3.15
2023-04-02T18:31:19.487Z,3.35
2023-04-02T18:33:46.039Z,2.92
2023-04-02T18:36:22.715Z,2.97
2023-04-02T18:38:52.174Z,2.78
2023-04-02T18:41:21.733Z,2.65
2023-04-02T18:43:48.149Z,3.05
2023-04-02T18:46:25.994Z,3.00
2023-04-02T18:48:57.114Z,2.97
2023-04-02T18:51:24.802Z,3.55
2023-04-02T18:53:53.502Z,3.35
2023-04-02T18:56:21.785Z,3.00
2023-04-02T18:58:49.471Z,4.18
2023-04-02T19:01:18.287Z,4.65
2023-04-02T19:03:52.768Z,3.25
2023-04-02T19:06:26.168Z,5.72
2023-04-02T19:09:00.315Z,5.45
2023-04-02T19:11:31.145Z,5.20
2023-04-02T19:14:26.914Z,4.15
2023-04-02T19:16:59.772Z,4.90
2023-04-02T19:19:27.601Z,3.60
2023-04-02T19:22:17.255Z,3.47
2023-04-02T19:25:02.727Z,3.55
2023-04-02T19:27:41.428Z,4.00
2023-04-02T19:30:11.538Z,4.38
2023-04-02T19:32:50.272Z,3.40
2023-04-02T19:35:22.778Z,3.97
2023-04-02T19:38:19.006Z,3.30
2023-04-02T19:40:53.657Z,3.50
2023-04-02T19:43:20.199Z,3.67
2023-04-02T19:45:49.057Z,4.10
2023-04-02T19:48:17.248Z,4.28
2023-04-02T19:50:44.466Z,4.00
2023-04-02T19:53:11.097Z,5.18
2023-04-02T19:55:37.897Z,4.05
2023-04-02T19:58:18.701Z,3.90
2023-04-02T20:00:45.886Z,4.15
2023-04-02T20:03:12.466Z,4.50
2023-04-02T20:05:39.134Z,4.55
2023-04-02T20:08:05.841Z,4.50
2023-04-02T20:10:32.241Z,4.47
2023-04-02T20:12:58.635Z,4.93
2023-04-02T20:15:25.427Z,3.75
2023-04-02T20:17:51.873Z,4.15
2023-04-02T20:20:18.561Z,4.82
2023-04-02T20:22:44.958Z,5.75
2023-04-02T20:25:11.368Z,5.20
2023-04-02T20:27:37.770Z,4.80
2023-04-02T20:30:04.756Z,4.78
2023-04-02T20:32:31.271Z,5.30
2023-04-02T20:34:58.047Z,5.22
2023-04-02T20:37:24.551Z,4.22
2023-04-02T20:39:50.951Z,4.72
2023-04-02T20:42:17.378Z,4.82
2023-04-02T20:44:43.775Z,5.00
2023-04-02T20:47:10.987Z,5.05
2023-04-02T20:49:37.598Z,4.97
2023-04-02T20:52:04.084Z,4.57
2023-04-02T20:54:30.520Z,4.72
2023-04-02T20:56:57.171Z,5.65
2023-04-02T20:59:23.679Z,6.05
2023-04-02T21:01:50.406Z,5.60
2023-04-02T21:04:17.282Z,4.80
2023-04-02T21:06:43.738Z,4.97
2023-04-02T21:09:17.492Z,5.00
2023-04-02T21:11:43.989Z,4.97
2023-04-02T21:14:10.832Z,5.20
2023-04-02T21:16:37.400Z,5.13
2023-04-02T21:19:05.939Z,5.65
2023-04-02T21:21:32.895Z,4.90
2023-04-02T21:24:00.488Z,5.25
2023-04-02T21:26:27.834Z,5.40
2023-04-02T21:28:54.543Z,6.50
2023-04-02T21:31:22.064Z,4.15
2023-04-02T21:33:49.806Z,4.20
2023-04-02T21:36:27.231Z,4.60
2023-04-02T21:38:55.398Z,4.10
2023-04-02T21:41:23.217Z,4.75
2023-04-02T21:43:49.885Z,4.05
2023-04-02T21:46:17.694Z,4.38
2023-04-02T21:48:44.257Z,3.90
2023-04-02T21:51:10.577Z,3.95
2023-04-02T21:53:37.002Z,4.95
2023-04-02T21:56:04.362Z,5.03
2023-04-02T21:58:30.852Z,5.50
2023-04-02T22:00:57.680Z,4.47
2023-04-02T22:03:31.046Z,4.97
2023-04-02T22:06:05.746Z,4.18
2023-04-02T22:08:32.596Z,4.20
2023-04-02T22:11:03.853Z,4.57
2023-04-02T22:13:30.231Z,4.68
2023-04-02T22:15:59.972Z,4.95
2023-04-02T22:18:26.352Z,3.67
2023-04-02T22:20:56.515Z,3.55
2023-04-02T22:23:25.526Z,4.88
2023-04-02T22:25:52.840Z,4.65
2023-04-02T22:28:19.245Z,4.50
2023-04-02T22:30:45.775Z,4.60
2023-04-02T22:33:12.306Z,4.03
2023-04-02T22:35:38.881Z,3.65
2023-04-02T22:38:05.508Z,4.10
2023-04-02T22:40:31.867Z,3.15
2023-04-02T22:42:58.278Z,3.80
2023-04-02T22:45:24.627Z,3.28
2023-04-02T22:47:51.233Z,3.45
2023-04-02T22:50:17.785Z,4.38
2023-04-02T22:52:44.581Z,4.18
2023-04-02T22:55:11.732Z,3.63
2023-04-02T22:57:38.353Z,3.28
2023-04-02T23:00:05.721Z,3.33
2023-04-02T23:02:32.240Z,3.40
2023-04-02T23:04:58.688Z,3.90
2023-04-02T23:07:25.073Z,3.35
2023-04-02T23:09:51.468Z,3.58
2023-04-02T23:12:17.837Z,3.42
2023-04-02T23:14:44.218Z,3.95
2023-04-02T23:17:10.600Z,3.50
2023-04-02T23:19:36.992Z,3.83
2023-04-02T23:22:03.842Z,3.70
2023-04-02T23:24:30.218Z,3.08
2023-04-02T23:26:56.900Z,3.83
2023-04-02T23:29:23.321Z,3.25
2023-04-02T23:31:49.822Z,4.20
2023-04-02T23:34:16.510Z,3.47
2023-04-02T23:36:42.918Z,3.30
2023-04-02T23:39:13.199Z,3.60
2023-04-02T23:41:40.823Z,3.45
2023-04-02T23:44:07.944Z,3.92
2023-04-02T23:46:34.929Z,3.03
2023-04-02T23:49:01.550Z,4.70
2023-04-02T23:51:28.515Z,3.70
2023-04-02T23:53:55.587Z,4.20
2023-04-02T23:56:22.255Z,3.38
2023-04-02T23:58:48.942Z,3.50
